Station: Snowtown  

  Atmospheric Gas Attenuation - ITU Rec 676-11   ----------------- dB/100km -----------------
Date Time Temp RH % AH g/m3 Dew Point Wind Direction Speed kph Gust kph Barometer mB Rainfall Since 9am 24GHz 47GHz 76GHz 122GHz 134GHz 241GHz
06/09 23:20 7.2 96 7.54 6.6 11 11 1013.1 0 17.6 26.1 38.7 101.5 92.2 315.8
06/09 23:10 7 96 7.44 6.4 9 11 1013.1 0 17.4 26.0 38.4 100.6 91.0 311.8
06/09 23:00 7 96 7.44 6.4 13 15 1027.4 0 17.4 26.5 39.0 102.1 92.1 315.5
06/09 22:50 7.3 96 7.59 6.7 11 15 1013.1 0 17.7 26.1 38.9 101.9 92.8 317.9
06/09 22:40 7.2 95 7.46 6.5 11 15 1013.1 0 17.4 25.9 38.4 100.6 91.1 311.9
06/09 22:30 7.5 96 7.69 6.9 13 17 1027 0 17.9 26.8 39.8 104.2 95.0 325.6
06/09 22:20 7.7 97 7.87 7.3 13 19 1013.1 0 18.3 26.5 39.9 104.5 96.2 329.9
06/09 22:10 7.4 96 7.64 6.8 13 15 1013.1 0 17.8 26.2 39.0 102.3 93.3 319.9
06/09 22:00 7.2 96 7.54 6.6 13 15 1026.4 0 17.6 26.6 39.3 102.9 93.2 319.3
06/09 21:50 7.1 96 7.49 6.5 13 17 1013.1 0 17.5 26.0 38.5 101.0 91.6 313.8
06/09 21:40 7 96 7.44 6.4 15 15 1013.1 0 17.4 26.0 38.4 100.6 91.0 311.8
06/09 21:30 7 96 7.44 6.4 13 15 1026.2 0 17.4 26.5 39.0 102.0 92.0 315.2
06/09 21:20 6.8 95 7.27 6.1 13 15 1013.1 0 17.1 25.7 37.8 99.0 88.9 304.3
06/09 21:10 7.1 95 7.41 6.4 11 13 1013.1 0 17.3 25.9 38.2 100.1 90.5 309.9
06/09 21:00 7.2 94 7.38 6.3 11 13 1026.2 0 17.3 26.3 38.6 101.0 91.0 311.4
06/09 20:50 7.4 94 7.48 6.5 9 11 1013.1 0 17.5 25.9 38.4 100.5 91.1 312.1
06/09 20:40 8 95 7.86 7.2 13 15 1013.1 0 18.3 26.4 39.7 104.0 95.7 328.1
06/09 20:30 7.6 95 7.66 6.9 11 13 1025.9 0 17.9 26.7 39.6 103.7 94.4 323.4
06/09 20:20 7.8 95 7.76 7.1 13 13 1013.1 0 18.1 26.3 39.3 103.2 94.5 324.1
06/09 20:10 7.6 95 7.66 6.9 11 13 1013.1 0 17.9 26.2 39.0 102.3 93.4 320.0
06/09 20:00 7.6 95 7.66 6.9 13 13 1025.3 0 17.9 26.6 39.6 103.6 94.3 323.3
06/09 19:50 7.4 94 7.48 6.5 13 13 1013.1 0 17.5 25.9 38.4 100.5 91.1 312.1
06/09 19:40 7.7 93 7.54 6.6 11 13 1013.1 0 17.6 25.9 38.5 100.8 91.6 313.8
06/09 19:30 7.9 92 7.56 6.7 13 15 1025.3 0 17.6 26.4 39.0 102.1 92.6 317.1
06/09 19:20 8.2 92 7.71 7 11 13 1013.1 0 17.9 26.1 38.9 102.1 93.3 320.0
06/09 19:10 8.4 91 7.72 7 13 13 1013.1 0 18.0 26.0 38.9 101.9 93.2 319.6
06/09 19:00 8.6 91 7.82 7.2 13 15 1025 0 18.2 26.6 39.7 104.0 95.3 326.8
06/09 18:50 9.1 90 7.99 7.5 13 17 1013.1 0 18.5 26.3 39.7 104.0 96.1 329.7
06/09 18:40 9.4 89 8.05 7.7 11 13 1013.1 0 18.6 26.3 39.8 104.3 96.5 331.4
06/09 18:30 10.2 87 8.28 8.1 11 15 1024.8 0 19.1 26.9 40.8 107.0 99.6 342.2
06/09 18:20 11.6 84 8.73 9 15 19 1013.1 0 20.0 26.8 41.5 108.8 103.0 354.3
06/09 18:10 11.9 82 8.69 8.9 15 20 1013.1 0 19.9 26.6 41.1 108.0 102.1 351.0
06/09 18:00 12.3 81 8.8 9.1 15 20 1024.7 0 20.1 27.1 41.9 109.9 104.0 357.8
06/09 17:50 12.9 78 8.79 9.2 15 20 1013.1 0 20.0 26.5 41.0 107.7 102.1 351.3
06/09 17:40 13.7 75 8.88 9.4 17 22 1013.1 0 20.2 26.4 41.0 107.6 102.2 351.9
06/09 17:30 14.2 74 9.04 9.6 15 20 1024.2 0 20.5 26.9 41.9 109.8 104.7 360.3
06/09 17:20 14.7 72 9.07 9.7 17 24 1013.1 0 20.5 26.4 41.2 108.3 103.4 356.2
06/09 17:10 15.1 69 8.9 9.5 19 24 1013.1 0 20.2 26.0 40.3 105.9 100.7 346.6
06/09 17:00 15.5 71 9.38 10.3 17 20 1023.8 0 21.2 27.1 42.5 111.7 107.4 370.1
06/09 16:50 16.2 65 8.96 9.6 11 15 1013.1 0 20.2 25.8 40.0 105.1 100.0 344.5
06/09 16:40 16.2 66 9.1 9.8 13 19 1013.1 0 20.5 26.0 40.6 106.5 101.9 350.9
06/09 16:30 16.5 65 9.13 9.9 11 20 1023.6 0 20.6 26.3 41.0 107.6 102.7 353.9
06/09 16:20 17 64 9.26 10.1 11 13 1013.1 0 20.8 26.0 40.8 107.1 102.9 354.6
06/09 16:10 17.1 62 9.02 9.8 11 15 1013.1 0 20.3 25.6 39.8 104.5 99.7 343.3
06/09 16:00 17.1 63 9.17 10 9 15 1023.6 0 20.6 26.2 40.9 107.2 102.5 353.0
06/09 15:50 17.1 63 9.17 10 13 17 1013.1 0 20.6 25.8 40.4 106.1 101.6 350.1
06/09 15:40 17.3 62 9.13 10 7 15 1013.1 0 20.5 25.7 40.1 105.4 100.8 347.4
06/09 15:30 17 60 8.68 9.2 13 17 1023.4 0 19.6 25.5 39.0 102.2 96.3 331.3
06/09 15:20 17.5 58 8.65 9.2 7 11 1013.1 0 19.5 24.9 38.2 100.2 94.5 325.2
06/09 15:10 17.4 57 8.45 8.8 7 11 1013.1 0 19.1 24.6 37.5 98.3 92.1 316.8
06/09 15:00 17 62 8.97 9.7 9 13 1023.2 0 20.2 25.9 40.1 105.2 100.0 344.3
06/09 14:50 16.3 60 8.32 8.5 9 15 1013.1 0 18.9 24.7 37.5 98.3 91.7 315.5
06/09 14:40 16.5 63 8.85 9.4 7 11 1013.1 0 20.0 25.5 39.4 103.5 98.2 338.3
06/09 14:30 17 59 8.54 8.9 9 13 1023.1 0 19.3 25.3 38.4 100.7 94.5 325.0
06/09 14:20 17.5 58 8.65 9.2 9 15 1013.1 0 19.5 24.9 38.2 100.2 94.5 325.2
06/09 14:10 17.3 62 9.13 10 9 15 1013.1 0 20.5 25.7 40.1 105.4 100.8 347.4
06/09 14:00 17.6 60 9 9.8 7 9 1023 0 20.2 25.8 39.9 104.7 99.6 343.0
06/09 13:50 17.5 60 8.94 9.7 7 11 1013.1 0 20.1 25.4 39.3 103.2 98.1 338.0
06/09 13:40 17.8 63 9.56 10.7 6 9 1013.1 0 21.4 26.3 41.6 109.2 105.7 364.5
06/09 13:30 17.2 66 9.66 10.8 6 11 1023.2 0 21.7 27.0 42.7 112.2 108.7 374.9
06/09 13:20 16.4 66 9.21 10 6 9 1013.1 0 20.8 26.1 40.9 107.4 103.0 355.0
06/09 13:10 16.4 63 8.79 9.3 7 15 1013.1 0 19.9 25.4 39.3 103.0 97.6 336.0
06/09 13:00 16.1 61 8.36 8.6 9 13 1023.6 0 19.0 25.2 38.2 100.0 93.3 320.8
06/09 12:50 16.5 64 8.99 9.7 9 17 1013.1 0 20.3 25.7 40.0 105.0 100.0 344.6
06/09 12:40 16.8 59 8.43 8.8 7 11 1013.1 0 19.1 24.8 37.7 98.8 92.5 318.3
06/09 12:30 16.5 60 8.42 8.7 6 11 1024.1 0 19.1 25.2 38.2 100.2 93.6 322.0
06/09 12:20 15.7 63 8.43 8.7 6 11 1013.1 0 19.1 25.1 38.2 100.2 93.8 322.8
06/09 12:10 15.3 65 8.49 8.8 4 7 1013.1 0 19.3 25.3 38.6 101.3 95.1 327.1
06/09 12:00 15.1 67 8.64 9 9 13 1024.5 0 19.6 26.0 39.8 104.3 98.2 337.8
06/09 11:50 15 64 8.21 8.3 9 17 1013.1 0 18.7 24.9 37.7 98.8 91.9 315.7
06/09 11:40 15.2 64 8.31 8.4 7 11 1013.1 0 18.9 25.0 38.0 99.6 92.9 319.4
06/09 11:30 15.3 68 8.88 9.4 9 17 1024.7 0 20.1 26.3 40.7 106.6 101.1 348.1
06/09 11:20 14.6 66 8.26 8.3 7 11 1013.1 0 18.8 25.1 38.1 99.8 93.0 319.6
06/09 11:10 14.6 64 8.01 7.9 4 7 1013.1 0 18.3 24.7 37.1 97.2 89.8 308.3
06/09 11:00 14.5 65 8.08 8 6 9 1024.8 0 18.4 25.3 37.9 99.2 91.7 314.9
06/09 10:50 14.1 71 8.62 8.9 9 13 1013.1 0 19.6 25.8 39.7 104.2 98.3 338.1
06/09 10:40 13.8 70 8.34 8.4 9 15 1013.1 0 19.0 25.5 38.8 101.7 95.0 326.5
06/09 10:30 13.6 70 8.24 8.2 9 11 1025.1 0 18.8 25.8 39.0 102.1 94.9 325.9
06/09 10:20 13.6 71 8.36 8.4 6 11 1013.1 0 19.1 25.6 38.9 102.1 95.5 328.2
06/09 10:10 13.5 68 7.95 7.7 7 11 1013.1 0 18.2 24.9 37.4 97.9 90.3 309.9
06/09 10:00 13.3 67 7.74 7.3 7 13 1025.2 0 17.8 25.1 37.1 97.2 88.7 304.2
06/09 09:50 13.4 68 7.91 7.6 11 19 1013.1 0 18.1 24.9 37.2 97.6 89.8 308.5
06/09 09:40 13.4 73 8.49 8.7 9 15 1013.1 0 19.4 25.8 39.5 103.8 97.4 335.1
06/09 09:30 13.3 72 8.32 8.4 7 11 1025.1 0 19.0 26.0 39.4 103.3 96.3 330.9
06/09 09:20 12.9 70 7.89 7.6 11 15 1013.1 0 18.1 25.0 37.4 98.0 90.2 309.5
06/09 09:10 13.1 74 8.44 8.6 11 15 1013.1 0 19.3 25.8 39.5 103.6 97.2 334.0
06/09 09:00 12.9 71 8 7.8 7 13 1024.7 0 18.3 25.6 38.3 100.4 92.5 317.6
06/09 08:50 12.8 68 7.62 7 6 7 1013.1 2 17.5 24.6 36.4 95.3 86.8 297.7
06/09 08:40 12.6 71 7.86 7.5 9 13 1013.1 2 18.1 25.0 37.4 98.1 90.1 309.4
06/09 08:30 12.6 77 8.52 8.7 7 11 1024.4 2 19.5 26.5 40.6 106.4 99.8 343.0
06/09 08:20 12.4 75 8.2 8.1 9 11 1013.1 2 18.8 25.6 38.9 102.0 94.8 325.8
06/09 08:10 12.1 73 7.83 7.4 9 11 1013.1 2 18.0 25.1 37.5 98.4 90.3 309.9
06/09 08:00 11.9 84 8.9 9.3 7 13 1024.1 2 20.3 27.4 42.5 111.5 105.9 364.3
06/09 07:50 11.6 83 8.63 8.8 6 9 1013.1 2 19.8 26.6 41.0 107.7 101.6 349.5
06/09 07:40 11.3 85 8.67 8.9 7 9 1013.1 2 19.9 26.7 41.4 108.6 102.6 352.8
06/09 07:30 10.9 84 8.36 8.3 4 7 1023.9 2 19.2 26.8 40.8 106.9 99.8 342.7
06/09 07:20 10.8 87 8.6 8.7 6 7 1013.1 2 19.7 26.8 41.3 108.5 102.3 351.7
06/09 07:10 10.5 90 8.73 8.9 0 0 1013.1 2 20.0 27.1 42.0 110.4 104.5 359.4
06/09 07:00 10.3 91 8.72 8.9 0 0 1023.5 2 20.0 27.5 42.6 111.7 105.5 362.8
06/09 06:50 10.3 90 8.62 8.7 0 0 1013.1 2 19.8 27.0 41.7 109.4 103.2 354.9

Last Refresh: 06-Sep-2026 23:32:58

Bureau of Meteorology